Time;durP1;ratioP1;P1;durP2;ratioP2;P2;SDS_P1;SDS_P2;PMS_P1;PMS_P2;Temp;Humidity;BMP_temperature;BMP_pressure;BME280_temperature;BME280_humidity;BME280_pressure;Samples;Min_cycle;Max_cycle;Signal;HPM_P1;HPM_P2
2022/07/09 00:00:45;;;;;;;2.40;1.70;;;;;;;;;;5060875;28;20219;-72
2022/07/09 00:03:34;;;;;;;2.67;1.90;;;;;;;;;;5064188;28;20729;-72
2022/07/09 00:06:20;;;;;;;3.17;2.20;;;;;;;;;;5059609;28;20201;-72
2022/07/09 00:09:08;;;;;;;2.70;2.10;;;;;;;;;;5059609;28;20200;-72
2022/07/09 00:11:54;;;;;;;3.07;2.10;;;;;;;;;;5061101;28;20270;-72
2022/07/09 00:14:41;;;;;;;2.63;2.10;;;;;;;;;;5063672;28;20212;-72
2022/07/09 00:17:29;;;;;;;2.47;2.10;;;;;;;;;;5056478;28;20672;-72
2022/07/09 00:20:18;;;;;;;3.07;1.90;;;;;;;;;;5062748;28;20583;-72
2022/07/09 00:23:05;;;;;;;3.20;2.00;;;;;;;;;;5057740;28;20229;-72
2022/07/09 00:25:52;;;;;;;3.20;2.10;;;;;;;;;;5056516;28;20230;-72
2022/07/09 00:28:39;;;;;;;3.27;2.10;;;;;;;;;;5061307;28;20208;-72
2022/07/09 00:31:26;;;;;;;2.53;2.10;;;;;;;;;;5063580;28;20246;-72
2022/07/09 00:34:13;;;;;;;3.40;2.17;;;;;;;;;;5059111;28;20204;-72
2022/07/09 00:37:02;;;;;;;2.97;1.97;;;;;;;;;;5054352;28;20704;-72
2022/07/09 00:39:49;;;;;;;2.37;2.00;;;;;;;;;;5060217;28;20216;-72
2022/07/09 00:42:36;;;;;;;3.27;2.30;;;;;;;;;;5057914;28;20216;-72
2022/07/09 00:45:23;;;;;;;2.80;2.10;;;;;;;;;;5062916;28;20256;-72
2022/07/09 00:48:10;;;;;;;3.27;2.00;;;;;;;;;;5058271;28;20209;-72
2022/07/09 00:50:57;;;;;;;3.93;2.17;;;;;;;;;;5062734;28;20217;-72
2022/07/09 00:53:46;;;;;;;2.83;2.10;;;;;;;;;;5060854;28;20197;-72
2022/07/09 00:56:33;;;;;;;3.27;1.97;;;;;;;;;;5059949;28;20242;-72
2022/07/09 00:59:21;;;;;;;2.87;2.13;;;;;;;;;;5060392;28;20207;-72
2022/07/09 01:02:09;;;;;;;3.10;2.00;;;;;;;;;;5052558;28;20234;-70
2022/07/09 01:04:57;;;;;;;4.03;2.13;;;;;;;;;;5057958;28;20200;-69
2022/07/09 01:07:44;;;;;;;2.23;1.83;;;;;;;;;;5056435;28;20589;-69
2022/07/09 01:10:35;;;;;;;3.23;2.10;;;;;;;;;;5057774;28;20290;-69
2022/07/09 01:13:22;;;;;;;4.03;2.10;;;;;;;;;;5057943;28;20261;-70
2022/07/09 01:16:13;;;;;;;3.00;2.10;;;;;;;;;;5059376;28;20215;-69
2022/07/09 01:19:00;;;;;;;3.70;1.87;;;;;;;;;;5057192;28;20234;-69
2022/07/09 01:21:49;;;;;;;2.90;2.00;;;;;;;;;;5062805;28;20203;-69
2022/07/09 01:24:36;;;;;;;3.10;2.10;;;;;;;;;;5061136;28;20211;-70
2022/07/09 01:27:23;;;;;;;2.37;1.63;;;;;;;;;;5054462;28;20203;-69
2022/07/09 01:30:12;;;;;;;2.97;1.67;;;;;;;;;;5058459;28;20238;-70
2022/07/09 01:32:59;;;;;;;2.47;2.10;;;;;;;;;;5060110;28;20210;-69
2022/07/09 01:35:46;;;;;;;2.93;1.90;;;;;;;;;;5054073;28;20211;-70
2022/07/09 01:38:35;;;;;;;1.73;1.50;;;;;;;;;;5058020;28;20581;-70
2022/07/09 01:41:22;;;;;;;3.03;1.73;;;;;;;;;;5056223;28;20231;-69
2022/07/09 01:44:11;;;;;;;3.43;2.13;;;;;;;;;;5058702;28;20673;-69
2022/07/09 01:46:58;;;;;;;2.67;2.03;;;;;;;;;;5059910;28;20207;-69
2022/07/09 01:49:45;;;;;;;2.03;1.80;;;;;;;;;;5063696;28;20218;-69
2022/07/09 01:52:32;;;;;;;3.10;1.80;;;;;;;;;;5059591;28;20202;-71
2022/07/09 01:55:21;;;;;;;3.57;1.90;;;;;;;;;;5062643;28;20216;-70
2022/07/09 01:58:08;;;;;;;2.80;1.60;;;;;;;;;;5059032;28;20203;-69
2022/07/09 02:00:55;;;;;;;2.63;1.70;;;;;;;;;;5057939;28;20618;-69
2022/07/09 02:03:42;;;;;;;2.77;2.10;;;;;;;;;;5059778;28;20259;-70
2022/07/09 02:06:30;;;;;;;2.23;1.70;;;;;;;;;;5056633;28;20670;-69
2022/07/09 02:09:17;;;;;;;4.23;2.00;;;;;;;;;;5063329;28;20214;-69
2022/07/09 02:12:06;;;;;;;2.53;1.50;;;;;;;;;;5057263;28;20724;-70
2022/07/09 02:14:57;;;;;;;2.07;1.60;;;;;;;;;;5060009;28;20214;-69
2022/07/09 02:17:44;;;;;;;3.00;1.50;;;;;;;;;;5058027;28;20289;-69
2022/07/09 02:20:32;;;;;;;2.67;1.70;;;;;;;;;;5053247;28;20225;-70
2022/07/09 02:23:22;;;;;;;1.97;1.57;;;;;;;;;;5055652;28;20335;-69
2022/07/09 02:26:09;;;;;;;1.60;1.50;;;;;;;;;;5056042;28;20206;-69
2022/07/09 02:28:58;;;;;;;2.27;1.70;;;;;;;;;;5056932;28;20217;-70
2022/07/09 02:31:45;;;;;;;2.83;1.43;;;;;;;;;;5062303;28;20583;-69
2022/07/09 02:34:32;;;;;;;1.50;1.40;;;;;;;;;;5053483;28;20212;-70
2022/07/09 02:37:19;;;;;;;1.73;1.40;;;;;;;;;;5062247;28;20213;-70
2022/07/09 02:40:07;;;;;;;1.40;1.30;;;;;;;;;;5063527;28;20331;-70
2022/07/09 02:42:54;;;;;;;2.17;1.47;;;;;;;;;;5059033;28;20233;-69
2022/07/09 02:45:42;;;;;;;1.43;1.30;;;;;;;;;;5063891;28;20768;-70
2022/07/09 02:48:29;;;;;;;2.40;1.60;;;;;;;;;;5060382;28;20688;-69
2022/07/09 02:51:16;;;;;;;1.43;1.30;;;;;;;;;;5061487;28;20681;-70
2022/07/09 02:54:03;;;;;;;1.30;0.97;;;;;;;;;;5063107;28;20210;-69
2022/07/09 02:56:50;;;;;;;1.70;1.17;;;;;;;;;;5062417;28;20209;-69
2022/07/09 02:59:37;;;;;;;1.57;1.33;;;;;;;;;;5069304;28;20209;-70
2022/07/09 03:02:27;;;;;;;1.07;0.90;;;;;;;;;;5057343;28;20233;-69
2022/07/09 03:05:14;;;;;;;1.40;1.30;;;;;;;;;;5057616;28;20212;-69
2022/07/09 03:08:02;;;;;;;1.40;1.27;;;;;;;;;;5061544;28;20230;-69
2022/07/09 03:10:49;;;;;;;2.00;1.50;;;;;;;;;;5056850;28;20253;-69
2022/07/09 03:13:37;;;;;;;1.20;1.10;;;;;;;;;;5047583;28;20282;-69
2022/07/09 03:16:24;;;;;;;1.43;1.17;;;;;;;;;;5042092;28;20274;-69
2022/07/09 03:19:13;;;;;;;2.07;1.30;;;;;;;;;;5042664;28;20292;-69
2022/07/09 03:22:00;;;;;;;1.50;1.40;;;;;;;;;;5047644;28;20225;-69
2022/07/09 03:24:47;;;;;;;1.13;1.10;;;;;;;;;;5040916;28;20208;-72
2022/07/09 03:27:35;;;;;;;1.53;1.30;;;;;;;;;;5044694;28;20204;-72
2022/07/09 03:30:23;;;;;;;1.50;1.17;;;;;;;;;;5039300;28;20237;-72
2022/07/09 03:33:11;;;;;;;1.97;1.07;;;;;;;;;;5036996;28;20594;-72
2022/07/09 03:35:59;;;;;;;1.80;1.20;;;;;;;;;;5039860;28;20210;-72
2022/07/09 03:38:46;;;;;;;2.20;1.20;;;;;;;;;;5042151;28;20726;-72
2022/07/09 03:41:34;;;;;;;1.27;1.07;;;;;;;;;;5035753;28;20240;-72
2022/07/09 03:44:21;;;;;;;1.43;1.10;;;;;;;;;;5044640;28;20893;-72
2022/07/09 03:47:08;;;;;;;2.03;1.13;;;;;;;;;;5034579;28;20205;-72
2022/07/09 03:49:55;;;;;;;0.87;0.83;;;;;;;;;;5040063;28;20205;-72
2022/07/09 03:52:44;;;;;;;0.83;0.83;;;;;;;;;;5047101;28;20210;-72
2022/07/09 03:55:31;;;;;;;1.47;1.27;;;;;;;;;;5042048;28;20236;-72
2022/07/09 03:58:18;;;;;;;1.10;1.00;;;;;;;;;;5040159;28;20197;-72
2022/07/09 04:01:05;;;;;;;2.70;1.60;;;;;;;;;;5047369;28;20211;-72
2022/07/09 04:03:52;;;;;;;0.90;0.90;;;;;;;;;;5043254;28;20287;-72
2022/07/09 04:06:39;;;;;;;1.77;1.10;;;;;;;;;;5041791;28;20213;-72
2022/07/09 04:09:27;;;;;;;1.03;0.93;;;;;;;;;;5038326;28;20672;-72
2022/07/09 04:12:14;;;;;;;1.93;1.27;;;;;;;;;;5060284;28;20360;-72
2022/07/09 04:15:03;;;;;;;1.20;1.10;;;;;;;;;;5064641;28;20216;-72
2022/07/09 04:17:50;;;;;;;1.33;1.00;;;;;;;;;;5056312;28;20200;-72
2022/07/09 04:20:37;;;;;;;1.13;1.00;;;;;;;;;;5061339;28;20212;-72
2022/07/09 04:23:24;;;;;;;1.20;1.10;;;;;;;;;;5057400;28;20223;-72
2022/07/09 04:26:13;;;;;;;1.37;0.80;;;;;;;;;;5058118;28;20216;-72
2022/07/09 04:29:01;;;;;;;1.53;1.10;;;;;;;;;;5059698;28;20541;-72
2022/07/09 04:31:48;;;;;;;1.60;1.23;;;;;;;;;;5054602;28;20600;-72
2022/07/09 04:34:35;;;;;;;1.00;0.90;;;;;;;;;;5056635;28;20239;-72
2022/07/09 04:37:22;;;;;;;1.07;0.97;;;;;;;;;;5059333;28;20659;-72
2022/07/09 04:40:10;;;;;;;1.20;1.03;;;;;;;;;;5058762;28;20211;-72
2022/07/09 04:42:59;;;;;;;0.90;0.90;;;;;;;;;;5055801;28;20265;-72
2022/07/09 04:45:45;;;;;;;1.60;0.90;;;;;;;;;;5064841;28;20208;-72
2022/07/09 04:48:34;;;;;;;0.73;0.73;;;;;;;;;;5063579;28;20286;-72
2022/07/09 04:51:21;;;;;;;2.20;1.20;;;;;;;;;;5053052;28;20205;-72
2022/07/09 04:54:08;;;;;;;1.00;0.87;;;;;;;;;;5064168;28;20250;-72
2022/07/09 04:56:57;;;;;;;1.40;1.10;;;;;;;;;;5060969;28;20209;-72
2022/07/09 04:59:46;;;;;;;1.60;0.90;;;;;;;;;;5060333;28;20575;-72
2022/07/09 05:02:33;;;;;;;0.90;0.90;;;;;;;;;;5059890;28;20291;-72
2022/07/09 05:05:23;;;;;;;1.47;1.00;;;;;;;;;;5063943;28;20215;-72
2022/07/09 05:08:10;;;;;;;0.70;0.70;;;;;;;;;;5055211;28;20200;-72
2022/07/09 05:10:57;;;;;;;0.77;0.70;;;;;;;;;;5061097;28;20248;-72
2022/07/09 05:13:46;;;;;;;0.90;0.87;;;;;;;;;;5062787;28;20571;-72
2022/07/09 05:16:35;;;;;;;1.37;1.07;;;;;;;;;;5061396;28;20731;-72
2022/07/09 05:19:22;;;;;;;1.57;0.90;;;;;;;;;;5065263;28;20212;-71
2022/07/09 05:22:09;;;;;;;1.37;1.00;;;;;;;;;;5055423;28;20210;-73
2022/07/09 05:24:56;;;;;;;0.80;0.80;;;;;;;;;;5059143;28;20228;-72
2022/07/09 05:27:43;;;;;;;1.27;0.90;;;;;;;;;;5057823;28;20211;-72
2022/07/09 05:30:36;;;;;;;1.40;0.90;;;;;;;;;;5057602;28;20240;-72
2022/07/09 05:33:25;;;;;;;1.10;1.00;;;;;;;;;;5060726;28;20203;-72
2022/07/09 05:36:12;;;;;;;0.60;0.60;;;;;;;;;;5038307;28;20215;-72
2022/07/09 05:39:02;;;;;;;1.30;0.90;;;;;;;;;;5055379;28;20205;-72
2022/07/09 05:41:49;;;;;;;0.98;0.82;;;;;;;;;;5057208;28;20279;-72
2022/07/09 05:44:36;;;;;;;0.85;0.80;;;;;;;;;;5052772;28;20723;-72
2022/07/09 05:47:23;;;;;;;0.75;0.75;;;;;;;;;;5058620;28;20245;-72
2022/07/09 05:50:12;;;;;;;1.67;1.00;;;;;;;;;;5056057;28;20205;-72
2022/07/09 05:52:58;;;;;;;1.10;0.90;;;;;;;;;;5056892;28;20258;-72
2022/07/09 05:55:46;;;;;;;0.70;0.60;;;;;;;;;;5057169;28;20202;-73
2022/07/09 05:58:33;;;;;;;1.52;1.05;;;;;;;;;;5057884;28;20207;-72
2022/07/09 06:01:20;;;;;;;0.90;0.70;;;;;;;;;;5059796;28;20210;-72
2022/07/09 06:04:08;;;;;;;1.70;0.90;;;;;;;;;;5058015;28;20268;-73
2022/07/09 06:06:56;;;;;;;0.60;0.60;;;;;;;;;;5057506;28;20674;-72
2022/07/09 06:09:43;;;;;;;1.20;0.85;;;;;;;;;;5056217;28;20285;-73
2022/07/09 06:12:30;;;;;;;1.73;1.15;;;;;;;;;;5058017;28;20238;-72
2022/07/09 06:15:17;;;;;;;0.85;0.77;;;;;;;;;;5039882;28;20219;-72
2022/07/09 06:18:05;;;;;;;1.15;0.85;;;;;;;;;;5064443;28;20286;-72
2022/07/09 06:20:52;;;;;;;0.65;0.60;;;;;;;;;;5063071;28;20298;-72
2022/07/09 06:23:40;;;;;;;0.95;0.80;;;;;;;;;;5060411;28;20223;-72
2022/07/09 06:26:27;;;;;;;0.85;0.85;;;;;;;;;;5059100;28;20253;-72
2022/07/09 06:29:14;;;;;;;1.08;0.98;;;;;;;;;;5060814;28;20283;-72
2022/07/09 06:32:02;;;;;;;0.75;0.68;;;;;;;;;;5059120;28;20671;-73
2022/07/09 06:34:49;;;;;;;1.05;0.90;;;;;;;;;;5064867;28;20227;-73
2022/07/09 06:37:35;;;;;;;0.98;0.85;;;;;;;;;;5066243;28;20576;-73
2022/07/09 06:40:24;;;;;;;0.65;0.65;;;;;;;;;;5062713;28;20210;-73
2022/07/09 06:43:12;;;;;;;1.30;0.85;;;;;;;;;;5056888;28;20204;-73
2022/07/09 06:45:59;;;;;;;0.77;0.60;;;;;;;;;;5059388;28;20233;-73
2022/07/09 06:48:46;;;;;;;0.73;0.68;;;;;;;;;;5062577;28;20227;-73
2022/07/09 06:51:33;;;;;;;1.08;0.88;;;;;;;;;;5060918;28;20684;-72
2022/07/09 06:54:20;;;;;;;0.85;0.85;;;;;;;;;;5063275;28;20628;-73
2022/07/09 06:57:10;;;;;;;1.95;1.00;;;;;;;;;;5061106;28;20201;-73
2022/07/09 06:59:57;;;;;;;0.95;0.95;;;;;;;;;;5061877;28;20209;-73
2022/07/09 07:02:44;;;;;;;1.42;1.02;;;;;;;;;;5064229;28;20289;-73
2022/07/09 07:05:31;;;;;;;0.88;0.85;;;;;;;;;;5061837;28;20722;-73
2022/07/09 07:08:19;;;;;;;1.00;0.95;;;;;;;;;;5059009;28;20207;-73
2022/07/09 07:11:05;;;;;;;1.17;0.85;;;;;;;;;;5059866;28;20231;-73
2022/07/09 07:13:54;;;;;;;0.80;0.63;;;;;;;;;;5063200;28;20659;-73
2022/07/09 07:16:41;;;;;;;0.98;0.70;;;;;;;;;;5057663;28;20212;-73
2022/07/09 07:19:28;;;;;;;0.73;0.60;;;;;;;;;;5060127;28;20605;-73
2022/07/09 07:22:15;;;;;;;0.68;0.60;;;;;;;;;;5058282;28;20238;-73
2022/07/09 07:25:02;;;;;;;0.70;0.50;;;;;;;;;;5059655;28;20227;-73
2022/07/09 07:27:50;;;;;;;0.75;0.57;;;;;;;;;;5058880;28;20204;-73
2022/07/09 07:30:38;;;;;;;0.65;0.65;;;;;;;;;;5057267;28;20210;-73
2022/07/09 07:33:25;;;;;;;0.70;0.70;;;;;;;;;;5062469;28;20208;-73
2022/07/09 07:36:12;;;;;;;1.95;0.85;;;;;;;;;;5056426;28;20235;-73
2022/07/09 07:38:59;;;;;;;0.68;0.68;;;;;;;;;;5063147;28;20679;-73
2022/07/09 07:41:46;;;;;;;0.77;0.70;;;;;;;;;;5061829;28;20199;-73
2022/07/09 07:44:33;;;;;;;1.02;0.93;;;;;;;;;;5060789;28;20238;-73
2022/07/09 07:47:21;;;;;;;0.77;0.70;;;;;;;;;;5059012;28;20215;-73
2022/07/09 07:50:09;;;;;;;1.35;0.93;;;;;;;;;;5057502;28;20352;-73
2022/07/09 07:52:56;;;;;;;0.82;0.68;;;;;;;;;;5061611;28;20207;-74
2022/07/09 07:55:43;;;;;;;0.73;0.70;;;;;;;;;;5068307;28;20218;-74
2022/07/09 07:58:30;;;;;;;1.33;0.70;;;;;;;;;;5058908;28;20338;-73
2022/07/09 08:01:17;;;;;;;1.33;0.80;;;;;;;;;;5060110;28;20212;-73
2022/07/09 08:04:05;;;;;;;0.60;0.60;;;;;;;;;;5061802;28;20300;-73
2022/07/09 08:06:52;;;;;;;0.70;0.70;;;;;;;;;;5063820;28;20278;-73
2022/07/09 08:09:39;;;;;;;0.98;0.80;;;;;;;;;;5058815;28;20290;-73
2022/07/09 08:12:26;;;;;;;0.82;0.75;;;;;;;;;;5063572;28;20239;-73
2022/07/09 08:15:14;;;;;;;0.63;0.60;;;;;;;;;;5064676;28;20210;-73
2022/07/09 08:18:01;;;;;;;0.82;0.55;;;;;;;;;;5064474;28;20246;-73
2022/07/09 08:20:51;;;;;;;1.15;0.70;;;;;;;;;;5053638;28;20265;-73
2022/07/09 08:23:53;;;;;;;0.63;0.63;;;;;;;;;;5060655;28;20208;-73
2022/07/09 08:26:40;;;;;;;0.90;0.80;;;;;;;;;;5058112;28;20211;-73
2022/07/09 08:29:27;;;;;;;0.68;0.50;;;;;;;;;;5054294;28;20573;-73
2022/07/09 08:32:14;;;;;;;0.63;0.52;;;;;;;;;;5060137;28;20218;-73
2022/07/09 08:35:01;;;;;;;1.27;0.90;;;;;;;;;;5058623;28;20272;-73
2022/07/09 08:37:50;;;;;;;0.70;0.70;;;;;;;;;;5057671;28;20562;-73
2022/07/09 08:40:37;;;;;;;1.08;0.80;;;;;;;;;;5053039;28;20196;-73
2022/07/09 08:43:26;;;;;;;1.75;0.88;;;;;;;;;;5060398;28;20199;-73
2022/07/09 08:46:14;;;;;;;1.10;0.80;;;;;;;;;;5058689;28;20288;-73
2022/07/09 08:49:01;;;;;;;0.80;0.80;;;;;;;;;;5058037;28;20235;-73
2022/07/09 08:51:50;;;;;;;0.85;0.85;;;;;;;;;;5059773;28;20570;-73
2022/07/09 08:54:39;;;;;;;0.95;0.77;;;;;;;;;;5055789;28;20686;-73
2022/07/09 08:57:26;;;;;;;2.60;0.80;;;;;;;;;;5058326;28;20336;-73
2022/07/09 09:00:13;;;;;;;0.60;0.60;;;;;;;;;;5056932;28;20234;-72
2022/07/09 09:03:00;;;;;;;1.08;0.70;;;;;;;;;;5059493;28;20314;-72
2022/07/09 09:06:02;;;;;;;0.95;0.70;;;;;;;;;;5062745;28;20227;-73
2022/07/09 09:08:48;;;;;;;1.02;0.70;;;;;;;;;;5058465;28;20616;-73
2022/07/09 09:11:37;;;;;;;1.00;0.80;;;;;;;;;;5056898;28;20575;-72
2022/07/09 09:14:25;;;;;;;0.63;0.60;;;;;;;;;;5060394;28;20226;-73
2022/07/09 09:17:12;;;;;;;1.00;0.70;;;;;;;;;;5059076;28;20204;-73
2022/07/09 09:20:00;;;;;;;1.67;0.80;;;;;;;;;;5055900;28;20269;-72
2022/07/09 09:22:50;;;;;;;0.85;0.50;;;;;;;;;;5061691;28;20212;-73
2022/07/09 09:25:38;;;;;;;1.35;0.60;;;;;;;;;;5056867;28;20246;-73
2022/07/09 09:28:26;;;;;;;0.95;0.55;;;;;;;;;;5058217;28;20207;-73
2022/07/09 09:31:19;;;;;;;0.75;0.75;;;;;;;;;;5057709;28;20206;-73
2022/07/09 09:34:16;;;;;;;1.00;0.70;;;;;;;;;;5057676;28;20250;-73
2022/07/09 09:37:03;;;;;;;0.50;0.50;;;;;;;;;;5060228;28;20215;-73
2022/07/09 09:39:51;;;;;;;0.60;0.55;;;;;;;;;;5056033;28;20618;-73
2022/07/09 09:42:41;;;;;;;0.52;0.52;;;;;;;;;;5060534;28;20243;-73
2022/07/09 09:45:30;;;;;;;0.90;0.70;;;;;;;;;;5056788;28;20711;-73
2022/07/09 09:48:21;;;;;;;0.60;0.60;;;;;;;;;;5056273;28;20661;-73
2022/07/09 09:51:10;;;;;;;0.85;0.77;;;;;;;;;;5063061;28;20225;-73
2022/07/09 09:53:59;;;;;;;0.60;0.60;;;;;;;;;;5058802;28;20203;-73
2022/07/09 09:56:46;;;;;;;0.60;0.60;;;;;;;;;;5057826;28;20290;-73
2022/07/09 09:59:37;;;;;;;1.33;1.10;;;;;;;;;;5056412;28;20215;-73
2022/07/09 10:02:26;;;;;;;0.80;0.80;;;;;;;;;;5058556;28;20496;-73
2022/07/09 10:05:14;;;;;;;0.70;0.70;;;;;;;;;;5063077;28;20234;-73
2022/07/09 10:08:01;;;;;;;0.63;0.60;;;;;;;;;;5055197;28;20207;-73
2022/07/09 10:10:51;;;;;;;0.63;0.63;;;;;;;;;;5060798;28;20319;-73
2022/07/09 10:13:38;;;;;;;0.90;0.80;;;;;;;;;;5055860;28;20215;-73
2022/07/09 10:16:36;;;;;;;0.77;0.77;;;;;;;;;;5059388;28;20587;-73
2022/07/09 10:19:29;;;;;;;0.75;0.55;;;;;;;;;;5053828;28;20202;-73
2022/07/09 10:22:16;;;;;;;1.73;0.93;;;;;;;;;;5061593;28;20266;-72
2022/07/09 10:25:05;;;;;;;0.47;0.47;;;;;;;;;;5057960;28;20235;-72
2022/07/09 10:27:52;;;;;;;0.85;0.70;;;;;;;;;;5063428;28;20214;-73
2022/07/09 10:30:39;;;;;;;0.85;0.73;;;;;;;;;;5058191;28;20209;-73
2022/07/09 10:33:33;;;;;;;0.75;0.70;;;;;;;;;;5057145;28;20292;-73
2022/07/09 10:36:22;;;;;;;0.80;0.65;;;;;;;;;;5060088;28;20804;-73
2022/07/09 10:39:13;;;;;;;0.77;0.77;;;;;;;;;;5043504;28;20951;-73
2022/07/09 10:42:01;;;;;;;1.27;0.75;;;;;;;;;;5057618;28;20209;-73
2022/07/09 10:44:51;;;;;;;0.75;0.57;;;;;;;;;;5057220;28;20239;-73
2022/07/09 10:47:39;;;;;;;0.60;0.60;;;;;;;;;;5057317;28;20655;-73
2022/07/09 10:50:28;;;;;;;1.55;0.90;;;;;;;;;;5058329;28;20245;-73
2022/07/09 10:53:17;;;;;;;1.15;0.80;;;;;;;;;;5062673;28;20196;-73
2022/07/09 10:56:05;;;;;;;0.65;0.65;;;;;;;;;;5056782;28;20294;-73
2022/07/09 10:58:52;;;;;;;1.52;0.65;;;;;;;;;;5062642;28;20202;-73
2022/07/09 11:01:40;;;;;;;0.50;0.50;;;;;;;;;;5060348;28;20210;-73
2022/07/09 11:04:28;;;;;;;1.30;0.75;;;;;;;;;;5060711;28;20285;-73
2022/07/09 11:07:21;;;;;;;0.85;0.73;;;;;;;;;;5060202;28;20667;-72
2022/07/09 11:10:21;;;;;;;0.40;0.40;;;;;;;;;;5065500;28;20203;-73
2022/07/09 11:13:09;;;;;;;0.75;0.50;;;;;;;;;;5059392;28;20547;-72
2022/07/09 11:16:00;;;;;;;0.57;0.50;;;;;;;;;;5063167;28;20580;-73
2022/07/09 11:18:48;;;;;;;0.93;0.82;;;;;;;;;;5060762;28;20489;-73
2022/07/09 11:21:35;;;;;;;0.90;0.57;;;;;;;;;;5061201;28;20200;-72
2022/07/09 11:24:23;;;;;;;1.13;0.50;;;;;;;;;;5060272;28;20230;-73
2022/07/09 11:27:14;;;;;;;1.58;0.85;;;;;;;;;;5057191;28;20209;-72
2022/07/09 11:30:03;;;;;;;1.83;0.88;;;;;;;;;;5060042;28;20203;-73
2022/07/09 11:32:51;;;;;;;1.00;0.77;;;;;;;;;;5059690;28;20215;-73
2022/07/09 11:35:38;;;;;;;0.40;0.30;;;;;;;;;;5063885;28;20207;-73
2022/07/09 11:38:25;;;;;;;0.90;0.60;;;;;;;;;;5058939;28;20209;-72
2022/07/09 11:41:12;;;;;;;1.30;0.60;;;;;;;;;;5061527;28;20293;-73
2022/07/09 11:44:01;;;;;;;1.20;0.75;;;;;;;;;;5059484;28;20204;-73
2022/07/09 11:47:01;;;;;;;0.70;0.65;;;;;;;;;;5063190;28;20317;-73
2022/07/09 11:49:50;;;;;;;0.85;0.60;;;;;;;;;;5066424;28;20217;-72
2022/07/09 11:52:38;;;;;;;0.50;0.50;;;;;;;;;;5056858;28;20207;-73
2022/07/09 11:55:31;;;;;;;0.50;0.50;;;;;;;;;;5062239;28;20192;-72
2022/07/09 11:58:18;;;;;;;0.45;0.45;;;;;;;;;;5059889;28;20266;-72
2022/07/09 12:01:12;;;;;;;1.00;0.50;;;;;;;;;;5061812;28;20207;-72
2022/07/09 12:03:59;;;;;;;0.73;0.65;;;;;;;;;;5064475;28;20276;-73
2022/07/09 12:06:49;;;;;;;0.60;0.60;;;;;;;;;;5061032;28;20234;-73
2022/07/09 12:09:36;;;;;;;0.90;0.63;;;;;;;;;;5058683;28;20228;-72
2022/07/09 12:12:23;;;;;;;0.65;0.40;;;;;;;;;;5041707;28;20236;-73
2022/07/09 12:15:10;;;;;;;1.35;0.50;;;;;;;;;;5041445;28;20208;-73
2022/07/09 12:18:00;;;;;;;0.90;0.50;;;;;;;;;;5035179;28;20287;-72
2022/07/09 12:20:47;;;;;;;0.55;0.40;;;;;;;;;;5046913;28;20207;-73
2022/07/09 12:23:35;;;;;;;0.50;0.50;;;;;;;;;;5035782;28;20214;-73
2022/07/09 12:26:22;;;;;;;0.75;0.50;;;;;;;;;;5042088;28;20221;-73
2022/07/09 12:29:09;;;;;;;0.50;0.50;;;;;;;;;;5040657;28;20608;-72
2022/07/09 12:31:56;;;;;;;0.55;0.30;;;;;;;;;;5037972;28;20221;-73
2022/07/09 12:34:44;;;;;;;0.82;0.50;;;;;;;;;;5040453;28;20215;-73
2022/07/09 12:37:34;;;;;;;0.95;0.57;;;;;;;;;;5040228;28;20286;-72
2022/07/09 12:40:23;;;;;;;0.30;0.30;;;;;;;;;;5041163;28;20215;-73
2022/07/09 12:43:10;;;;;;;0.68;0.43;;;;;;;;;;5047404;28;20211;-73
2022/07/09 12:45:57;;;;;;;0.45;0.45;;;;;;;;;;5042428;28;20728;-73
2022/07/09 12:48:44;;;;;;;0.52;0.30;;;;;;;;;;5038743;28;20207;-73
2022/07/09 12:51:33;;;;;;;0.32;0.28;;;;;;;;;;5033648;28;20290;-73
2022/07/09 12:54:21;;;;;;;0.77;0.32;;;;;;;;;;5039844;28;20205;-73
2022/07/09 12:57:07;;;;;;;0.50;0.50;;;;;;;;;;5043403;28;20263;-73
2022/07/09 12:59:55;;;;;;;0.47;0.30;;;;;;;;;;5038909;28;20208;-73
2022/07/09 13:02:42;;;;;;;0.30;0.30;;;;;;;;;;5038407;28;20234;-73
2022/07/09 13:05:29;;;;;;;0.90;0.30;;;;;;;;;;5036721;28;20599;-73
2022/07/09 13:08:17;;;;;;;0.60;0.52;;;;;;;;;;5038164;28;20204;-73
2022/07/09 13:11:04;;;;;;;0.65;0.40;;;;;;;;;;5046978;28;20242;-73
2022/07/09 13:13:51;;;;;;;0.40;0.20;;;;;;;;;;5058550;28;20241;-73
2022/07/09 13:16:39;;;;;;;0.30;0.30;;;;;;;;;;5056923;28;20211;-73
2022/07/09 13:19:26;;;;;;;0.32;0.32;;;;;;;;;;5058528;28;20202;-72
2022/07/09 13:22:13;;;;;;;0.75;0.40;;;;;;;;;;5061662;28;20211;-72
2022/07/09 13:25:01;;;;;;;0.93;0.40;;;;;;;;;;5058247;28;20200;-73
2022/07/09 13:27:51;;;;;;;0.40;0.38;;;;;;;;;;5054962;28;20200;-73
2022/07/09 13:30:40;;;;;;;1.00;0.47;;;;;;;;;;5058514;28;20252;-73
2022/07/09 13:33:27;;;;;;;0.20;0.20;;;;;;;;;;5061723;28;20348;-73
2022/07/09 13:36:14;;;;;;;0.45;0.40;;;;;;;;;;5057328;28;20195;-73
2022/07/09 13:39:01;;;;;;;0.40;0.30;;;;;;;;;;5059518;28;20211;-73
2022/07/09 13:41:50;;;;;;;0.30;0.20;;;;;;;;;;5057278;28;20208;-72
2022/07/09 13:44:37;;;;;;;0.43;0.32;;;;;;;;;;5055691;28;20204;-72
2022/07/09 13:47:24;;;;;;;0.68;0.25;;;;;;;;;;5059932;28;20227;-73
2022/07/09 13:50:10;;;;;;;0.28;0.20;;;;;;;;;;5058286;28;20203;-73
2022/07/09 13:52:57;;;;;;;0.60;0.38;;;;;;;;;;5063214;28;20214;-73
2022/07/09 13:55:45;;;;;;;0.60;0.30;;;;;;;;;;5059429;28;20238;-73
2022/07/09 13:58:34;;;;;;;0.30;0.30;;;;;;;;;;5060304;28;20590;-73
2022/07/09 14:01:21;;;;;;;0.20;0.20;;;;;;;;;;5059876;28;20200;-73
2022/07/09 14:04:08;;;;;;;0.80;0.40;;;;;;;;;;5055008;28;20211;-73
2022/07/09 14:06:56;;;;;;;0.60;0.30;;;;;;;;;;5062569;28;20234;-73
2022/07/09 14:09:43;;;;;;;0.20;0.20;;;;;;;;;;5056034;28;20679;-73
2022/07/09 14:12:30;;;;;;;1.10;0.43;;;;;;;;;;5039816;28;20275;-73
2022/07/09 14:15:19;;;;;;;0.43;0.43;;;;;;;;;;5039554;28;20663;-73
2022/07/09 14:18:06;;;;;;;0.90;0.40;;;;;;;;;;5035591;28;20208;-73
2022/07/09 14:20:53;;;;;;;0.20;0.20;;;;;;;;;;5037527;28;20207;-73
2022/07/09 14:23:41;;;;;;;0.47;0.20;;;;;;;;;;5039295;28;20204;-72
2022/07/09 14:26:28;;;;;;;0.28;0.28;;;;;;;;;;5038266;28;20720;-73
2022/07/09 14:29:15;;;;;;;0.20;0.17;;;;;;;;;;5035824;28;20212;-73
2022/07/09 14:32:07;;;;;;;0.45;0.45;;;;;;;;;;5040325;28;20207;-73
2022/07/09 14:34:54;;;;;;;0.63;0.30;;;;;;;;;;5044534;28;20211;-73
2022/07/09 14:37:41;;;;;;;0.15;0.15;;;;;;;;;;5045543;28;20273;-73
2022/07/09 14:40:28;;;;;;;0.20;0.20;;;;;;;;;;5046351;28;20205;-73
2022/07/09 14:43:16;;;;;;;0.55;0.43;;;;;;;;;;5046516;28;20283;-73
2022/07/09 14:46:04;;;;;;;0.30;0.30;;;;;;;;;;5046705;28;20309;-73
2022/07/09 14:48:53;;;;;;;0.47;0.30;;;;;;;;;;5040316;28;20204;-73
2022/07/09 14:51:40;;;;;;;0.30;0.20;;;;;;;;;;5041824;28;20209;-73
2022/07/09 14:54:27;;;;;;;0.43;0.40;;;;;;;;;;5041900;28;20671;-73
2022/07/09 14:57:14;;;;;;;0.30;0.30;;;;;;;;;;5038868;28;20679;-73
2022/07/09 15:00:01;;;;;;;0.38;0.25;;;;;;;;;;5041098;28;20691;-72
2022/07/09 15:02:48;;;;;;;0.20;0.20;;;;;;;;;;5040308;28;20228;-72
2022/07/09 15:05:37;;;;;;;0.20;0.20;;;;;;;;;;5045529;28;20224;-73
2022/07/09 15:08:24;;;;;;;0.22;0.20;;;;;;;;;;5041507;28;20207;-73
2022/07/09 15:11:12;;;;;;;0.35;0.25;;;;;;;;;;5045939;28;20223;-73
2022/07/09 15:13:59;;;;;;;0.20;0.20;;;;;;;;;;5057809;28;20207;-72
2022/07/09 15:16:46;;;;;;;0.40;0.22;;;;;;;;;;5060974;28;20653;-73
2022/07/09 15:19:33;;;;;;;0.28;0.28;;;;;;;;;;5056334;28;20719;-73
2022/07/09 15:22:21;;;;;;;0.55;0.30;;;;;;;;;;5058158;28;20214;-73
2022/07/09 15:25:10;;;;;;;0.30;0.30;;;;;;;;;;5060340;28;20207;-73
2022/07/09 15:27:57;;;;;;;0.43;0.20;;;;;;;;;;5060823;28;20227;-72
2022/07/09 15:30:44;;;;;;;0.17;0.17;;;;;;;;;;5062035;28;20253;-73
2022/07/09 15:33:31;;;;;;;0.38;0.20;;;;;;;;;;5058976;28;20698;-73
2022/07/09 15:36:18;;;;;;;0.47;0.20;;;;;;;;;;5065831;28;20676;-73
2022/07/09 15:39:08;;;;;;;0.60;0.30;;;;;;;;;;5061021;28;20212;-72
2022/07/09 15:41:55;;;;;;;0.40;0.13;;;;;;;;;;5059434;28;20246;-73
2022/07/09 15:44:42;;;;;;;0.55;0.30;;;;;;;;;;5061060;28;20206;-73
2022/07/09 15:47:29;;;;;;;0.85;0.38;;;;;;;;;;5060573;28;20314;-73
2022/07/09 15:50:16;;;;;;;0.25;0.25;;;;;;;;;;5062220;28;20202;-72
2022/07/09 15:53:03;;;;;;;0.22;0.20;;;;;;;;;;5060218;28;20204;-73
2022/07/09 15:55:51;;;;;;;0.43;0.25;;;;;;;;;;5061070;28;20261;-72
2022/07/09 15:58:38;;;;;;;0.68;0.40;;;;;;;;;;5065442;28;20970;-73
2022/07/09 16:01:27;;;;;;;1.65;0.22;;;;;;;;;;5060266;28;20240;-73
2022/07/09 16:04:14;;;;;;;0.40;0.20;;;;;;;;;;5065781;28;20204;-73
2022/07/09 16:07:01;;;;;;;0.30;0.30;;;;;;;;;;5062402;28;20226;-73
2022/07/09 16:09:48;;;;;;;0.55;0.38;;;;;;;;;;5065534;28;20199;-73
2022/07/09 16:15:37;;;;;;;0.75;0.35;;;;;;;;;;5062509;28;20938;-73
2022/07/09 16:18:24;;;;;;;0.60;0.22;;;;;;;;;;5060442;28;20204;-73
2022/07/09 16:21:11;;;;;;;0.55;0.40;;;;;;;;;;5060642;28;20206;-73
2022/07/09 16:23:58;;;;;;;0.68;0.17;;;;;;;;;;5064602;28;20691;-72
2022/07/09 16:26:45;;;;;;;0.30;0.20;;;;;;;;;;5057178;28;20244;-73
2022/07/09 16:29:34;;;;;;;0.55;0.40;;;;;;;;;;5060974;28;20664;-73
2022/07/09 16:32:21;;;;;;;0.30;0.30;;;;;;;;;;5063561;28;20211;-69
2022/07/09 16:35:09;;;;;;;0.75;0.43;;;;;;;;;;5065392;28;20195;-69
2022/07/09 16:37:56;;;;;;;0.40;0.30;;;;;;;;;;5063005;28;20292;-69
2022/07/09 16:40:43;;;;;;;0.32;0.30;;;;;;;;;;5062879;28;20207;-70
2022/07/09 16:43:30;;;;;;;0.65;0.47;;;;;;;;;;5058390;28;20230;-69
2022/07/09 16:46:20;;;;;;;0.35;0.20;;;;;;;;;;5065971;28;20304;-70
2022/07/09 16:49:07;;;;;;;0.68;0.40;;;;;;;;;;5061049;28;20729;-69